MMAS/AGU METAR and TAF weather

Enter ICAO airport designator
Station Type Date Time Source
MMAS METAR 2019/04/20 17:40 UTC NOAA

MMAS 201740Z 18005KT 9SM SKC 24/M02 A3034 RMK SLP121 CI HZY


Station Type Date Time Source
MMAS Decoded METAR 2019/04/20 17:40 UTC NOAA

Aguascalientes, Ags., Mexico (MMAS) 21-53N 102-18W
Apr 20, 2019 - 01:40 PM EDT / 2019.04.20 1740 UTC
Wind: from the S (180 degrees) at 6 MPH (5 KT):0
Visibility: 9 mile(s):0
Sky conditions: clear
Temperature: 75 F (24 C)
Dew Point: 28 F (-2 C)
Relative Humidity: 17%
Pressure (altimeter): 30.34 in. Hg (1027 hPa)
ob: MMAS 201740Z 18005KT 9SM SKC 24/M02 A3034 RMK SLP121 CI HZY
cycle: 17

Station Type Date Time Source
MMAS TAF 2019/04/20 18:15 UTC NOAA

TAF MMAS 201610Z 2018/2118 24015KT P6SM BKN250
FM210600 04007KT P6SM SKC
FM211700 24014KT P6SM BKN250

Example: see airport list